Time;durP1;ratioP1;P1;durP2;ratioP2;P2;SDS_P1;SDS_P2;PMS_P1;PMS_P2;Temp;Humidity;BMP_temperature;BMP_pressure;BME280_temperature;BME280_humidity;BME280_pressure;Samples;Min_cycle;Max_cycle;Signal;HPM_P1;HPM_P2
2024/01/03 00:01:44;;;;;;;11.45;7.30;;;;;;;7.24;48.12;99345.41;1753470;80;21311;-94
2024/01/03 00:04:37;;;;;;;14.00;8.33;;;;;;;7.16;48.29;99343.09;1777235;80;21319;-94
2024/01/03 00:07:44;;;;;;;12.63;7.90;;;;;;;7.36;47.81;99357.08;1788130;80;21359;-93
2024/01/03 00:10:58;;;;;;;10.10;7.05;;;;;;;7.12;47.84;99354.50;1791260;80;21394;-93
2024/01/03 00:14:24;;;;;;;12.20;7.35;;;;;;;6.90;48.08;99344.73;1795092;80;21324;-93
2024/01/03 00:17:31;;;;;;;10.60;7.47;;;;;;;6.84;48.43;99357.67;1796909;80;21213;-93
2024/01/03 00:20:38;;;;;;;13.08;7.28;;;;;;;6.75;48.81;99361.44;1796922;80;21921;-92
2024/01/03 00:23:46;;;;;;;11.57;7.53;;;;;;;6.78;48.73;99360.25;1796806;80;21303;-93
2024/01/03 00:26:52;;;;;;;11.45;7.50;;;;;;;6.84;48.64;99360.91;1797620;80;21347;-93
2024/01/03 00:30:00;;;;;;;11.33;7.03;;;;;;;6.52;49.16;99358.61;1796925;80;21343;-94
2024/01/03 00:33:07;;;;;;;10.38;7.17;;;;;;;6.52;49.21;99364.05;1797336;80;21772;-93
2024/01/03 00:36:15;;;;;;;12.30;7.53;;;;;;;6.75;48.91;99365.52;1799265;79;21306;-93
2024/01/03 00:39:21;;;;;;;11.57;7.47;;;;;;;6.81;48.59;99362.60;1814110;79;21323;-93
2024/01/03 00:42:27;;;;;;;11.25;7.60;;;;;;;6.62;48.99;99365.20;1814671;78;21338;-92
2024/01/03 00:45:34;;;;;;;11.28;7.62;;;;;;;6.67;48.94;99376.41;1815602;79;21310;-92
2024/01/03 00:48:40;;;;;;;11.95;7.15;;;;;;;6.73;48.85;99380.28;1814951;79;21338;-93
2024/01/03 00:51:47;;;;;;;10.58;7.22;;;;;;;6.65;48.84;99371.66;1808762;79;21244;-95
2024/01/03 00:54:54;;;;;;;9.60;7.22;;;;;;;6.66;48.84;99368.77;1798356;79;21280;-93
2024/01/03 00:58:01;;;;;;;9.10;6.20;;;;;;;6.79;48.50;99375.53;1798403;79;21335;-94
2024/01/03 01:01:07;;;;;;;8.85;6.55;;;;;;;6.62;48.67;99378.80;1799766;79;21315;-94
2024/01/03 01:04:14;;;;;;;14.58;6.53;;;;;;;6.70;48.63;99383.37;1799908;79;21351;-94
2024/01/03 01:07:20;;;;;;;11.95;7.55;;;;;;;6.78;48.68;99381.48;1798041;79;21316;-94
2024/01/03 01:10:27;;;;;;;13.18;8.10;;;;;;;6.88;48.70;99386.20;1795828;80;21276;-94
2024/01/03 01:13:34;;;;;;;10.45;8.45;;;;;;;6.94;48.47;99390.60;1792511;79;21331;-93
2024/01/03 01:16:41;;;;;;;9.98;6.62;;;;;;;6.77;48.74;99402.02;1785963;80;21316;-94
2024/01/03 01:19:47;;;;;;;11.20;6.72;;;;;;;6.75;48.63;99405.44;1785124;80;21320;-92
2024/01/03 01:22:54;;;;;;;9.13;6.17;;;;;;;6.61;48.32;99402.41;1794659;79;21302;-93
2024/01/03 01:26:00;;;;;;;8.78;5.95;;;;;;;6.59;47.95;99397.67;1796437;80;21303;-93
2024/01/03 01:29:07;;;;;;;7.55;5.50;;;;;;;6.62;47.71;99393.73;1795120;80;21323;-94
2024/01/03 01:32:15;;;;;;;12.58;5.95;;;;;;;6.44;47.87;99414.30;1795153;80;21319;-93
2024/01/03 01:35:21;;;;;;;9.73;6.55;;;;;;;6.50;47.46;99405.49;1797222;80;21282;-94
2024/01/03 01:38:28;;;;;;;9.80;5.85;;;;;;;6.44;47.63;99399.87;1796344;80;21300;-94
2024/01/03 01:41:35;;;;;;;9.13;6.92;;;;;;;6.25;47.49;99410.08;1795024;80;21366;-94
2024/01/03 01:44:41;;;;;;;9.25;5.85;;;;;;;6.11;47.90;99416.19;1796326;80;21291;-93
2024/01/03 01:47:50;;;;;;;11.63;6.25;;;;;;;5.98;48.16;99404.50;1795969;80;22008;-93
2024/01/03 01:50:57;;;;;;;9.63;6.53;;;;;;;5.79;48.58;99408.36;1794354;79;21358;-93
2024/01/03 01:54:04;;;;;;;11.53;7.30;;;;;;;6.10;47.93;99411.78;1785587;80;21313;-94
2024/01/03 01:57:11;;;;;;;11.57;7.50;;;;;;;5.83;48.51;99408.36;1785423;79;21299;-93
2024/01/03 02:00:20;;;;;;;10.98;6.55;;;;;;;5.77;48.80;99406.81;1784145;80;21327;-93
2024/01/03 02:03:26;;;;;;;15.00;8.58;;;;;;;5.79;48.45;99407.00;1784229;80;22564;-94
2024/01/03 02:06:32;;;;;;;14.98;8.73;;;;;;;5.74;48.81;99409.37;1779343;80;21316;-93
2024/01/03 02:09:38;;;;;;;16.15;8.93;;;;;;;5.74;48.95;99420.22;1763124;81;21993;-94
2024/01/03 02:12:45;;;;;;;16.23;9.53;;;;;;;5.68;49.07;99415.44;1762161;81;21359;-94
2024/01/03 02:15:51;;;;;;;16.57;9.15;;;;;;;5.74;48.98;99414.80;1760915;81;21311;-94
2024/01/03 02:18:59;;;;;;;18.75;11.00;;;;;;;5.82;48.95;99418.85;1763318;79;21304;-93
2024/01/03 02:22:06;;;;;;;17.73;10.68;;;;;;;5.97;48.90;99424.50;1760738;79;21307;-95
2024/01/03 02:25:14;;;;;;;17.90;10.15;;;;;;;6.05;48.27;99416.88;1806872;78;21302;-94
2024/01/03 02:28:20;;;;;;;18.12;10.65;;;;;;;5.87;48.40;99423.78;1806781;79;21354;-94
2024/01/03 02:31:27;;;;;;;19.05;10.50;;;;;;;5.84;48.85;99414.13;1805079;79;21228;-92
2024/01/03 02:34:34;;;;;;;18.20;9.50;;;;;;;5.82;48.42;99432.42;1806944;79;21306;-94
2024/01/03 02:37:40;;;;;;;14.65;9.45;;;;;;;5.57;48.96;99433.40;1791092;79;21303;-93
2024/01/03 02:40:46;;;;;;;16.48;8.83;;;;;;;5.54;48.92;99431.85;1785458;80;21795;-94
2024/01/03 02:43:53;;;;;;;14.80;8.60;;;;;;;5.47;49.23;99435.41;1785171;78;21331;-93
2024/01/03 02:46:59;;;;;;;14.15;9.20;;;;;;;5.33;49.31;99428.24;1785489;80;21827;-93
2024/01/03 02:50:06;;;;;;;18.17;8.83;;;;;;;5.37;49.08;99433.69;1785505;80;21472;-93
2024/01/03 02:53:13;;;;;;;13.62;8.45;;;;;;;5.52;48.99;99439.83;1795913;79;21879;-94
2024/01/03 02:56:20;;;;;;;17.20;10.05;;;;;;;5.47;48.79;99442.19;1794748;80;22466;-94
2024/01/03 02:59:27;;;;;;;12.78;8.45;;;;;;;5.42;48.67;99441.33;1795640;80;21855;-93
2024/01/03 03:02:34;;;;;;;13.03;7.28;;;;;;;5.33;48.80;99456.72;1796277;80;21284;-94
2024/01/03 03:05:40;;;;;;;11.68;7.97;;;;;;;5.24;49.16;99457.70;1796393;80;21323;-93
2024/01/03 03:08:47;;;;;;;14.15;7.25;;;;;;;5.34;48.67;99463.83;1795203;80;21260;-94
2024/01/03 03:11:54;;;;;;;12.23;7.12;;;;;;;5.41;48.69;99469.47;1794424;80;22567;-94
2024/01/03 03:15:01;;;;;;;11.03;7.08;;;;;;;5.49;48.44;99468.13;1795632;80;21328;-94
2024/01/03 03:18:09;;;;;;;12.05;7.55;;;;;;;5.35;48.48;99472.30;1796332;80;21343;-93
2024/01/03 03:21:17;;;;;;;11.60;7.20;;;;;;;5.32;48.13;99474.52;1775690;79;21324;-94
2024/01/03 03:24:23;;;;;;;13.55;7.08;;;;;;;5.45;47.92;99464.55;1763443;81;21240;-93
2024/01/03 03:27:29;;;;;;;11.18;7.05;;;;;;;5.53;47.90;99468.65;1761971;81;21327;-93
2024/01/03 03:30:35;;;;;;;9.65;6.85;;;;;;;5.72;47.48;99464.80;1762094;81;21363;-94
2024/01/03 03:33:42;;;;;;;12.45;6.80;;;;;;;5.56;47.99;99454.77;1763606;79;21331;-95
2024/01/03 03:36:49;;;;;;;13.83;8.45;;;;;;;5.75;47.44;99458.55;1758112;80;22159;-94
2024/01/03 03:39:48;;;;;;;;;;;;;;;5.92;47.08;99466.22;1798831;80;21248;-93
2024/01/03 03:42:55;;;;;;;11.45;8.05;;;;;;;5.75;47.35;99469.91;1795032;80;20280;-94
2024/01/03 03:46:01;;;;;;;15.80;8.33;;;;;;;5.60;47.76;99477.33;1796069;80;21295;-94
2024/01/03 03:49:08;;;;;;;15.48;8.93;;;;;;;5.38;48.34;99466.56;1796308;79;22180;-93
2024/01/03 03:52:15;;;;;;;17.62;8.68;;;;;;;5.37;48.37;99470.80;1776678;80;21371;-93
2024/01/03 03:55:21;;;;;;;16.20;8.85;;;;;;;5.39;48.36;99475.55;1763249;81;21212;-94
2024/01/03 03:58:28;;;;;;;20.25;8.98;;;;;;;5.36;48.41;99480.80;1763276;81;21315;-92
2024/01/03 04:01:33;;;;;;;14.50;9.38;;;;;;;5.41;48.28;99487.09;1762914;79;21328;-94
2024/01/03 04:04:38;;;;;;;19.73;9.55;;;;;;;5.32;48.26;99483.50;1762089;81;21189;-93
2024/01/03 04:07:47;;;;;;;18.12;8.88;;;;;;;5.31;48.38;99484.48;1763216;79;21371;-93
2024/01/03 04:10:52;;;;;;;14.10;8.25;;;;;;;5.36;48.11;99478.09;1763084;81;21336;-93
2024/01/03 04:13:58;;;;;;;17.57;8.45;;;;;;;5.25;48.33;99492.43;1763532;81;21653;-92
2024/01/03 04:17:04;;;;;;;14.83;8.65;;;;;;;5.15;48.44;99499.33;1761835;80;21355;-93
2024/01/03 04:20:14;;;;;;;14.45;8.10;;;;;;;5.23;48.36;99507.52;1763190;81;21363;-93
2024/01/03 04:23:21;;;;;;;13.15;7.75;;;;;;;5.41;48.02;99497.06;1764286;79;22030;-93
2024/01/03 04:26:28;;;;;;;14.25;7.40;;;;;;;5.40;47.83;99503.00;1763087;81;22013;-92
2024/01/03 04:29:34;;;;;;;12.65;7.97;;;;;;;5.56;47.58;99510.38;1763252;81;21181;-92
2024/01/03 04:32:41;;;;;;;19.57;9.40;;;;;;;5.41;47.74;99506.56;1761994;81;21382;-92
2024/01/03 04:35:48;;;;;;;16.42;9.03;;;;;;;5.24;48.36;99524.12;1762821;79;21395;-92
2024/01/03 04:38:54;;;;;;;22.15;10.30;;;;;;;5.12;48.76;99526.24;1762949;81;21221;-93
2024/01/03 04:42:01;;;;;;;18.82;9.30;;;;;;;5.26;48.43;99532.93;1761914;79;21834;-93
2024/01/03 04:45:07;;;;;;;21.48;10.32;;;;;;;5.38;48.14;99519.95;1761876;79;21213;-93
2024/01/03 04:48:14;;;;;;;16.87;9.73;;;;;;;5.22;48.17;99513.95;1761910;81;21264;-93
2024/01/03 04:51:22;;;;;;;19.10;9.40;;;;;;;5.29;47.51;99513.64;1767847;79;21335;-93
2024/01/03 04:54:28;;;;;;;15.90;7.95;;;;;;;5.24;47.29;99524.12;1791073;80;21221;-93
2024/01/03 04:57:34;;;;;;;19.12;10.70;;;;;;;5.19;47.38;99529.69;1791224;80;21328;-93
2024/01/03 05:00:41;;;;;;;15.30;9.20;;;;;;;5.18;47.27;99540.20;1790818;80;21847;-92
2024/01/03 05:03:48;;;;;;;14.83;8.38;;;;;;;5.04;47.52;99541.13;1789623;80;21304;-93
2024/01/03 05:06:55;;;;;;;21.17;9.00;;;;;;;5.13;47.33;99551.02;1792427;80;21784;-92
2024/01/03 05:10:01;;;;;;;16.17;7.80;;;;;;;5.13;47.25;99560.50;1794905;80;22065;-92
2024/01/03 05:13:08;;;;;;;13.18;8.10;;;;;;;5.23;47.15;99556.32;1795230;80;21338;-93
2024/01/03 05:16:15;;;;;;;14.23;7.45;;;;;;;5.24;47.06;99547.17;1796357;80;21331;-93
2024/01/03 05:19:20;;;;;;;18.27;8.03;;;;;;;4.98;47.65;99546.31;1794603;80;21197;-93
2024/01/03 05:22:26;;;;;;;17.02;8.30;;;;;;;5.10;47.40;99551.83;1788263;80;21280;-93
2024/01/03 05:25:32;;;;;;;12.90;7.92;;;;;;;5.03;47.40;99552.11;1786127;79;21346;-94
2024/01/03 05:28:38;;;;;;;12.45;8.05;;;;;;;5.25;47.06;99553.44;1786147;80;21351;-93
2024/01/03 05:31:44;;;;;;;14.65;8.03;;;;;;;5.19;47.00;99560.36;1785596;79;21348;-95
2024/01/03 05:34:51;;;;;;;15.38;7.90;;;;;;;5.07;47.12;99560.27;1785651;80;21308;-94
2024/01/03 05:37:59;;;;;;;15.28;7.55;;;;;;;5.09;47.17;99565.05;1770784;79;21307;-91
2024/01/03 05:41:06;;;;;;;12.55;7.22;;;;;;;4.83;47.51;99572.63;1751476;81;21386;-92
2024/01/03 05:44:13;;;;;;;14.07;7.85;;;;;;;4.86;47.64;99577.75;1768516;81;21232;-93
2024/01/03 05:47:19;;;;;;;17.15;7.75;;;;;;;4.94;47.65;99588.29;1770047;80;21327;-93
2024/01/03 05:50:25;;;;;;;13.40;7.12;;;;;;;5.06;47.47;99593.81;1770172;81;21315;-92
2024/01/03 05:53:32;;;;;;;14.90;7.70;;;;;;;5.09;47.40;99589.44;1785345;80;21237;-93
2024/01/03 05:56:38;;;;;;;14.75;8.08;;;;;;;5.17;47.30;99586.77;1784424;79;21165;-93
2024/01/03 05:59:47;;;;;;;12.88;8.43;;;;;;;5.18;47.55;99591.70;1784500;80;21332;-93
2024/01/03 06:02:55;;;;;;;12.15;7.50;;;;;;;5.43;47.11;99596.26;1785988;79;21288;-93
2024/01/03 06:06:02;;;;;;;11.93;7.67;;;;;;;5.49;46.92;99597.47;1785343;79;21229;-94
2024/01/03 06:09:07;;;;;;;13.15;7.30;;;;;;;5.50;46.95;99605.95;1793964;79;21854;-93
2024/01/03 06:12:15;;;;;;;11.05;7.55;;;;;;;5.54;46.89;99606.82;1791953;79;21315;-92
2024/01/03 06:15:21;;;;;;;11.22;7.25;;;;;;;5.52;47.00;99603.44;1771395;79;21311;-93
2024/01/03 06:18:27;;;;;;;26.65;11.05;;;;;;;5.31;47.25;99611.94;1784974;79;21279;-93
2024/01/03 06:21:34;;;;;;;15.70;8.88;;;;;;;5.45;47.23;99611.85;1791994;79;21291;-92
2024/01/03 06:24:39;;;;;;;12.47;7.97;;;;;;;5.64;47.06;99617.55;1791368;79;21303;-92
2024/01/03 06:27:46;;;;;;;51.02;18.90;;;;;;;5.84;46.49;99606.82;1791653;79;21826;-92
2024/01/03 06:30:52;;;;;;;23.15;8.60;;;;;;;5.87;46.09;99605.12;1791528;79;21308;-92
2024/01/03 06:33:58;;;;;;;10.95;7.53;;;;;;;5.75;46.16;99593.38;1784643;79;21315;-92
2024/01/03 06:37:06;;;;;;;10.18;6.42;;;;;;;5.71;45.78;99583.86;1768134;81;21263;-93
2024/01/03 06:40:13;;;;;;;22.22;8.18;;;;;;;5.34;46.22;99588.58;1770599;79;21355;-92
2024/01/03 06:43:20;;;;;;;194.57;49.63;;;;;;;5.28;46.56;99588.38;1773902;79;21277;-92
2024/01/03 06:46:27;;;;;;;175.40;38.13;;;;;;;5.34;46.25;99597.22;1776462;79;21201;-93
2024/01/03 06:49:32;;;;;;;35.10;12.45;;;;;;;5.30;46.58;99596.69;1778833;79;21319;-93
2024/01/03 06:52:39;;;;;;;9.60;6.35;;;;;;;5.24;46.73;99595.98;1782939;79;21300;-93
2024/01/03 06:55:48;;;;;;;14.38;6.58;;;;;;;5.51;46.00;99591.40;1795540;79;21308;-92
2024/01/03 06:58:56;;;;;;;8.53;6.05;;;;;;;5.58;45.53;99594.64;1773090;79;21285;-93
2024/01/03 07:02:02;;;;;;;12.53;6.60;;;;;;;5.66;45.38;99597.06;1788404;79;21298;-92
2024/01/03 07:05:08;;;;;;;10.75;6.42;;;;;;;5.60;45.60;99609.42;1791842;79;21978;-91
2024/01/03 07:08:15;;;;;;;11.43;7.25;;;;;;;5.81;45.38;99608.49;1791001;79;22290;-93
2024/01/03 07:11:22;;;;;;;15.63;7.35;;;;;;;5.94;45.06;99602.65;1786475;79;21261;-93
2024/01/03 07:14:30;;;;;;;11.03;7.10;;;;;;;6.08;45.10;99602.02;1783431;79;21236;-93
2024/01/03 07:17:38;;;;;;;9.20;6.28;;;;;;;6.31;44.59;99599.55;1787902;79;21350;-93
2024/01/03 07:20:44;;;;;;;16.90;7.90;;;;;;;6.35;44.38;99598.67;1787200;79;21318;-95
2024/01/03 07:23:52;;;;;;;16.30;7.85;;;;;;;6.45;44.18;99598.55;1788106;79;21303;-93
2024/01/03 07:26:59;;;;;;;22.17;8.83;;;;;;;6.34;44.12;99600.55;1793404;79;21910;-92
2024/01/03 07:30:05;;;;;;;9.90;6.97;;;;;;;6.31;44.02;99609.05;1785614;79;21316;-94
2024/01/03 07:33:13;;;;;;;14.35;7.22;;;;;;;6.20;44.24;99611.20;1787014;79;21299;-93
2024/01/03 07:36:20;;;;;;;10.95;6.35;;;;;;;6.41;43.94;99602.11;1792941;79;21280;-94
2024/01/03 07:39:26;;;;;;;10.60;5.97;;;;;;;6.58;43.80;99593.45;1794052;79;21319;-93
2024/01/03 07:42:34;;;;;;;9.18;6.25;;;;;;;6.28;44.09;99595.79;1790763;79;21336;-93
2024/01/03 07:45:38;;;;;;;11.08;7.08;;;;;;;6.27;44.39;99604.95;1786565;79;21283;-93
2024/01/03 07:48:44;;;;;;;12.60;6.42;;;;;;;6.38;44.41;99618.22;1789192;79;21819;-93
2024/01/03 07:51:51;;;;;;;11.33;6.95;;;;;;;6.53;44.12;99620.28;1784373;79;21278;-94
2024/01/03 07:54:58;;;;;;;8.38;5.92;;;;;;;6.61;44.12;99618.95;1790733;79;21291;-93
2024/01/03 07:58:05;;;;;;;8.73;5.35;;;;;;;6.79;43.78;99624.23;1782696;79;21326;-94
2024/01/03 08:01:12;;;;;;;7.67;4.95;;;;;;;6.69;43.94;99619.48;1781977;79;21320;-92
2024/01/03 08:04:18;;;;;;;8.55;5.33;;;;;;;6.68;44.06;99616.39;1779628;79;21366;-93
2024/01/03 08:07:25;;;;;;;9.93;5.87;;;;;;;6.73;43.87;99613.54;1782790;79;21315;-93
2024/01/03 08:10:36;;;;;;;7.67;5.75;;;;;;;6.73;43.85;99618.09;1788432;79;21307;-93
2024/01/03 08:13:43;;;;;;;10.70;6.58;;;;;;;6.58;43.91;99617.91;1785391;79;21315;-92
2024/01/03 08:16:49;;;;;;;9.10;6.00;;;;;;;6.66;43.99;99616.06;1789273;79;21314;-93
2024/01/03 08:19:57;;;;;;;8.03;5.53;;;;;;;6.90;43.69;99615.22;1751636;81;21241;-91
2024/01/03 08:23:03;;;;;;;8.43;6.30;;;;;;;6.84;43.73;99611.83;1727977;82;21366;-92
2024/01/03 08:26:17;;;;;;;9.18;5.53;;;;;;;6.83;43.75;99610.14;1739529;82;21323;-91
2024/01/03 08:29:23;;;;;;;11.88;6.25;;;;;;;6.85;43.91;99606.73;1714703;82;21307;-91
2024/01/03 08:32:36;;;;;;;8.83;6.08;;;;;;;6.88;44.01;99598.76;1733207;81;21323;-93
2024/01/03 08:35:42;;;;;;;9.33;6.30;;;;;;;6.49;44.77;99597.18;1736972;81;21296;-92
2024/01/03 08:38:49;;;;;;;10.23;6.15;;;;;;;6.68;44.39;99598.73;1734051;80;21199;-92
2024/01/03 08:41:55;;;;;;;8.55;5.58;;;;;;;6.83;43.92;99597.91;1712023;83;21322;-91
2024/01/03 08:45:03;;;;;;;10.70;6.95;;;;;;;6.82;43.95;99598.94;1731373;81;21323;-91
2024/01/03 08:48:13;;;;;;;6.67;5.05;;;;;;;6.75;43.89;99587.03;1735474;81;21335;-91
2024/01/03 08:51:22;;;;;;;14.15;8.35;;;;;;;6.56;44.14;99592.79;1729879;82;21190;-91
2024/01/03 08:54:32;;;;;;;14.43;8.85;;;;;;;6.57;44.51;99593.97;1736632;82;21362;-91
2024/01/03 08:57:37;;;;;;;11.30;8.15;;;;;;;6.72;44.62;99593.30;1730799;81;21317;-91
2024/01/03 09:00:44;;;;;;;13.08;6.85;;;;;;;6.66;44.80;99600.27;1736188;82;22228;-90
2024/01/03 09:04:05;;;;;;;11.95;7.62;;;;;;;6.81;44.31;99584.98;1725347;83;22060;-91
2024/01/03 09:07:12;;;;;;;12.88;6.67;;;;;;;6.71;44.34;99588.89;1735855;82;21338;-90
2024/01/03 09:10:19;;;;;;;13.40;8.73;;;;;;;6.62;44.58;99592.11;1709208;82;21334;-90
2024/01/03 09:13:31;;;;;;;17.67;10.40;;;;;;;6.43;45.09;99594.63;1734117;82;21279;-91
2024/01/03 09:16:35;;;;;;;11.83;7.83;;;;;;;6.32;46.31;99582.22;1701254;83;21323;-91
2024/01/03 09:19:41;;;;;;;9.73;7.00;;;;;;;6.90;45.64;99568.16;1733137;82;21354;-92
2024/01/03 09:22:47;;;;;;;10.68;7.30;;;;;;;6.81;45.72;99571.39;1716942;80;21969;-89
2024/01/03 09:25:55;;;;;;;13.18;9.25;;;;;;;6.92;44.79;99570.22;1712343;83;21373;-91
2024/01/03 09:29:01;;;;;;;12.40;8.48;;;;;;;6.88;44.66;99557.98;1727658;82;21268;-90
2024/01/03 09:32:02;;;;;;;17.65;8.25;;;;;;;6.78;44.37;99550.52;1734418;82;21192;-92
2024/01/03 09:34:55;;;;;;;14.23;9.35;;;;;;;6.36;45.49;99550.15;1688551;83;21227;-91
2024/01/03 09:38:03;;;;;;;14.15;7.83;;;;;;;6.52;45.28;99542.00;1728567;82;21898;-91
2024/01/03 09:41:12;;;;;;;10.93;6.60;;;;;;;6.60;45.09;99531.14;1733246;82;21881;-89
2024/01/03 09:44:18;;;;;;;10.68;6.75;;;;;;;6.68;45.19;99537.09;1697749;83;21882;-90
2024/01/03 09:47:25;;;;;;;11.45;7.28;;;;;;;6.99;44.73;99533.15;1734552;82;21314;-90
2024/01/03 09:50:32;;;;;;;9.53;6.90;;;;;;;7.27;44.14;99526.80;1733534;82;21157;-91
2024/01/03 09:53:38;;;;;;;17.07;7.50;;;;;;;7.27;44.01;99527.32;1730102;82;21323;-90
2024/01/03 09:56:51;;;;;;;11.18;7.62;;;;;;;7.22;44.12;99528.36;1723919;82;21900;-91
2024/01/03 09:59:56;;;;;;;10.93;7.22;;;;;;;7.08;44.31;99520.39;1711521;81;21465;-89
2024/01/03 10:03:05;;;;;;;10.15;6.67;;;;;;;7.23;44.17;99518.66;1687887;83;21369;-89
2024/01/03 10:06:18;;;;;;;14.10;7.75;;;;;;;7.22;44.18;99510.16;1735974;82;21266;-90
2024/01/03 10:09:25;;;;;;;12.50;7.78;;;;;;;7.00;44.76;99502.73;1683245;83;21318;-91
2024/01/03 10:12:34;;;;;;;13.35;7.33;;;;;;;6.81;45.23;99486.28;1733827;82;21589;-89
2024/01/03 10:15:41;;;;;;;17.73;8.17;;;;;;;6.89;45.25;99481.68;1727070;82;21342;-91
2024/01/03 10:18:48;;;;;;;13.35;7.78;;;;;;;7.06;45.25;99472.98;1708868;82;21326;-90
2024/01/03 10:22:02;;;;;;;12.53;7.92;;;;;;;6.98;45.17;99468.92;1711636;82;21284;-90
2024/01/03 10:25:07;;;;;;;14.93;8.00;;;;;;;7.04;45.24;99465.50;1710259;82;21375;-91
2024/01/03 10:28:15;;;;;;;11.80;7.58;;;;;;;7.07;45.45;99460.23;1714302;82;21287;-90
2024/01/03 10:31:25;;;;;;;13.15;8.10;;;;;;;7.16;45.10;99453.75;1730269;82;22336;-90
2024/01/03 10:34:31;;;;;;;16.20;9.00;;;;;;;6.83;45.68;99444.84;1702742;82;21346;-90
2024/01/03 10:37:38;;;;;;;20.48;8.63;;;;;;;6.91;45.87;99445.64;1736898;81;21251;-90
2024/01/03 10:40:47;;;;;;;14.65;8.65;;;;;;;6.88;45.91;99431.06;1727248;82;21667;-89
2024/01/03 10:43:54;;;;;;;15.00;9.28;;;;;;;6.88;46.00;99421.55;1735405;82;21885;-90
2024/01/03 10:47:03;;;;;;;19.70;9.10;;;;;;;6.77;46.51;99425.97;1740559;82;21350;-91
2024/01/03 10:50:09;;;;;;;13.45;8.93;;;;;;;6.97;46.42;99421.53;1742027;82;21848;-90
2024/01/03 10:53:16;;;;;;;13.75;7.92;;;;;;;6.90;46.60;99422.72;1740287;81;21323;-91
2024/01/03 10:56:23;;;;;;;27.10;12.68;;;;;;;7.10;46.17;99422.64;1737252;81;21342;-92
2024/01/03 10:59:32;;;;;;;26.15;11.73;;;;;;;7.19;46.02;99420.74;1741460;81;21250;-90
2024/01/03 11:02:45;;;;;;;26.48;7.25;;;;;;;7.22;45.96;99419.55;1769360;81;21335;-90
2024/01/03 11:06:05;;;;;;;14.00;8.75;;;;;;;7.30;46.05;99420.38;1768400;81;22095;-91
2024/01/03 11:09:12;;;;;;;19.48;8.88;;;;;;;7.41;46.16;99424.56;1724559;82;21974;-90
2024/01/03 11:12:21;;;;;;;32.05;9.90;;;;;;;7.35;46.32;99426.12;1706290;84;21319;-89
2024/01/03 11:15:30;;;;;;;16.50;9.95;;;;;;;7.42;45.90;99420.81;1736510;82;21325;-89
2024/01/03 11:18:54;;;;;;;17.30;10.98;;;;;;;7.29;45.96;99406.93;1728126;82;21347;-89
2024/01/03 11:22:05;;;;;;;21.40;10.23;;;;;;;7.11;46.37;99398.53;1751617;81;21280;-88
2024/01/03 11:25:09;;;;;;;17.75;11.75;;;;;;;7.34;46.02;99398.59;1763420;81;21346;-90
2024/01/03 11:28:40;;;;;;;18.70;10.93;;;;;;;7.49;45.69;99391.87;1787550;79;21345;-90
2024/01/03 11:32:06;;;;;;;18.15;10.43;;;;;;;7.48;45.80;99389.31;1778498;79;21846;-89
2024/01/03 11:35:13;;;;;;;21.85;11.55;;;;;;;7.34;46.25;99388.20;1776682;79;21930;-90
2024/01/03 11:38:41;;;;;;;18.98;11.55;;;;;;;7.57;45.90;99392.33;1782481;79;21155;-90
2024/01/03 11:41:51;;;;;;;19.82;10.55;;;;;;;7.49;45.96;99386.44;1773799;79;22566;-90
2024/01/03 11:45:21;;;;;;;21.52;12.47;;;;;;;7.25;46.42;99386.06;1787002;79;21324;-89
2024/01/03 11:48:30;;;;;;;29.20;13.58;;;;;;;7.24;46.40;99375.33;1789868;79;21955;-91
2024/01/03 11:51:38;;;;;;;22.22;12.28;;;;;;;7.27;46.49;99379.91;1792140;79;21295;-91
2024/01/03 11:54:46;;;;;;;27.67;13.83;;;;;;;7.36;46.60;99374.77;1790472;79;21307;-91
2024/01/03 11:57:53;;;;;;;27.98;13.08;;;;;;;7.46;46.54;99369.62;1792149;79;21340;-90
2024/01/03 12:01:02;;;;;;;24.50;14.28;;;;;;;7.62;46.13;99359.97;1793072;79;21349;-90
2024/01/03 12:04:20;;;;;;;23.35;14.43;;;;;;;7.55;46.13;99353.58;1799102;79;21325;-90
2024/01/03 12:07:26;;;;;;;35.23;16.45;;;;;;;7.59;46.00;99350.83;1799866;79;21292;-92
2024/01/03 12:10:33;;;;;;;30.57;17.32;;;;;;;7.66;45.67;99351.27;1798643;79;21300;-91
2024/01/03 12:13:38;;;;;;;37.90;16.87;;;;;;;7.68;45.51;99345.66;1798335;79;21908;-90
2024/01/03 12:16:59;;;;;;;42.17;20.62;;;;;;;7.87;45.09;99338.37;1791447;79;21304;-91
2024/01/03 12:20:20;;;;;;;46.75;21.33;;;;;;;7.91;45.04;99336.98;1767516;81;21329;-92
2024/01/03 12:23:28;;;;;;;48.68;25.60;;;;;;;7.55;45.46;99335.88;1799090;79;21920;-89
2024/01/03 12:26:34;;;;;;;61.37;29.25;;;;;;;7.50;45.92;99330.98;1801829;78;21338;-92
2024/01/03 12:29:41;;;;;;;69.77;28.77;;;;;;;7.52;45.95;99333.52;1805863;79;21324;-90
2024/01/03 12:32:51;;;;;;;61.92;28.10;;;;;;;7.35;46.17;99330.91;1796453;79;21347;-90
2024/01/03 12:36:01;;;;;;;81.87;36.45;;;;;;;7.20;46.54;99339.99;1754134;80;21937;-90
2024/01/03 12:39:08;;;;;;;70.85;34.08;;;;;;;7.28;46.72;99331.80;1781601;79;21347;-91
2024/01/03 12:42:15;;;;;;;74.20;33.45;;;;;;;7.38;46.43;99332.41;1808951;79;21325;-91
2024/01/03 12:45:22;;;;;;;78.75;33.35;;;;;;;7.53;46.34;99335.20;1808745;79;21343;-92
2024/01/03 12:48:28;;;;;;;79.32;33.90;;;;;;;7.45;46.46;99327.95;1775346;79;21302;-90
2024/01/03 12:51:35;;;;;;;67.45;33.13;;;;;;;7.43;46.63;99327.27;1795796;79;21378;-89
2024/01/03 12:54:46;;;;;;;79.37;34.23;;;;;;;7.48;46.70;99315.36;1777394;80;22280;-91
2024/01/03 12:57:53;;;;;;;80.32;31.20;;;;;;;7.41;47.14;99308.94;1777447;80;21284;-91
2024/01/03 13:00:58;;;;;;;86.10;30.65;;;;;;;7.45;46.83;99312.15;1776019;80;21177;-91
2024/01/03 13:04:04;;;;;;;67.32;30.50;;;;;;;7.49;47.05;99308.05;1777214;80;21363;-91
2024/01/03 13:07:10;;;;;;;68.92;32.15;;;;;;;7.30;47.58;99306.64;1788357;79;21698;-91
2024/01/03 13:10:16;;;;;;;80.35;32.67;;;;;;;7.15;47.72;99306.53;1808381;79;21307;-90
2024/01/03 13:13:22;;;;;;;87.67;34.43;;;;;;;7.04;48.14;99306.43;1807403;79;21307;-90
2024/01/03 13:16:29;;;;;;;86.85;34.95;;;;;;;6.87;48.43;99313.84;1797963;79;21509;-91
2024/01/03 13:19:37;;;;;;;79.17;35.25;;;;;;;6.99;48.46;99312.91;1791466;79;21338;-89
2024/01/03 13:22:45;;;;;;;77.70;35.88;;;;;;;6.94;48.48;99310.40;1792311;79;21340;-90
2024/01/03 13:25:52;;;;;;;92.30;37.20;;;;;;;6.74;48.84;99313.55;1796741;79;22010;-90
2024/01/03 13:28:59;;;;;;;94.65;39.90;;;;;;;6.85;48.83;99309.59;1804736;79;21333;-91
2024/01/03 13:32:05;;;;;;;77.97;33.40;;;;;;;6.91;48.77;99306.16;1801632;79;21303;-91
2024/01/03 13:35:12;;;;;;;81.78;34.40;;;;;;;6.86;48.87;99306.68;1752339;79;21295;-91
2024/01/03 13:38:19;;;;;;;80.22;33.25;;;;;;;6.80;49.21;99297.04;1778956;79;21350;-93
2024/01/03 13:41:27;;;;;;;83.05;31.50;;;;;;;6.94;49.12;99303.09;1798273;78;21306;-92
2024/01/03 13:44:34;;;;;;;84.83;29.37;;;;;;;7.05;49.06;99306.75;1792759;79;21312;-90
2024/01/03 13:47:42;;;;;;;72.17;28.52;;;;;;;7.08;49.00;99300.13;1781890;79;21314;-89
2024/01/03 13:51:12;;;;;;;67.20;29.20;;;;;;;6.67;50.02;99297.59;1807125;79;21933;-92
2024/01/03 13:54:18;;;;;;;87.33;39.88;;;;;;;6.54;50.47;99299.53;1803579;79;21327;-93
2024/01/03 13:57:24;;;;;;;71.77;30.32;;;;;;;6.48;50.68;99294.77;1793876;79;21228;-91
2024/01/03 14:00:31;;;;;;;67.72;30.40;;;;;;;6.26;51.32;99301.81;1796320;79;21390;-92
2024/01/03 14:03:37;;;;;;;77.78;32.08;;;;;;;6.40;50.95;99306.53;1808573;79;22725;-92
2024/01/03 14:06:49;;;;;;;72.37;30.65;;;;;;;6.40;51.10;99293.47;1793922;79;21674;-92
2024/01/03 14:09:56;;;;;;;79.07;29.25;;;;;;;6.44;51.17;99292.06;1801442;79;22299;-90
2024/01/03 14:13:02;;;;;;;70.32;32.65;;;;;;;6.57;50.99;99284.73;1806985;79;21331;-91
2024/01/03 14:16:02;;;;;;;73.83;33.08;;;;;;;6.45;51.20;99288.35;1801217;79;21315;-92
2024/01/03 14:18:56;;;;;;;71.33;35.33;;;;;;;6.63;50.90;99282.17;1798022;79;21315;-92
2024/01/03 14:22:03;;;;;;;83.07;33.45;;;;;;;6.57;51.05;99278.78;1800894;79;22249;-91
2024/01/03 14:25:09;;;;;;;73.87;31.55;;;;;;;6.73;50.92;99274.30;1776840;80;21303;-92
2024/01/03 14:28:17;;;;;;;58.00;29.00;;;;;;;6.78;50.84;99270.05;1774475;80;21390;-91
2024/01/03 14:31:25;;;;;;;57.62;28.38;;;;;;;7.01;50.46;99267.86;1776066;80;22358;-91
2024/01/03 14:34:33;;;;;;;67.25;30.57;;;;;;;7.07;50.41;99268.53;1777144;80;21319;-92
2024/01/03 14:37:39;;;;;;;75.00;30.85;;;;;;;7.04;50.44;99270.23;1794272;79;21334;-91
2024/01/03 14:40:48;;;;;;;81.37;30.12;;;;;;;7.17;50.20;99269.14;1800315;79;21319;-91